Time;durP1;ratioP1;P1;durP2;ratioP2;P2;SDS_P1;SDS_P2;PMS_P1;PMS_P2;Temp;Humidity;BMP_temperature;BMP_pressure;BME280_temperature;BME280_humidity;BME280_pressure;Samples;Min_cycle;Max_cycle;Signal;HPM_P1;HPM_P2
2021/09/01 00:00:21;;;;;;;19.20;9.63;;;13.70;98.30;;;;;;5008310;28;20229;-73
2021/09/01 00:02:46;;;;;;;16.17;9.50;;;13.60;98.30;;;;;;5008219;28;20217;-73
2021/09/01 00:05:12;;;;;;;15.03;10.40;;;13.70;98.30;;;;;;5009520;28;20182;-73
2021/09/01 00:07:38;;;;;;;17.87;9.80;;;13.60;98.10;;;;;;5010136;28;20280;-74
2021/09/01 00:10:08;;;;;;;18.83;9.60;;;13.50;98.30;;;;;;5008910;28;20206;-73
2021/09/01 00:12:35;;;;;;;20.10;10.90;;;13.60;98.20;;;;;;5015866;28;20440;-74
2021/09/01 00:15:01;;;;;;;16.93;9.57;;;13.60;98.20;;;;;;5017148;28;20490;-72
2021/09/01 00:17:27;;;;;;;15.80;9.57;;;13.60;98.20;;;;;;5017801;28;20936;-75
2021/09/01 00:19:53;;;;;;;18.80;9.40;;;13.60;97.80;;;;;;5013436;28;20447;-75
2021/09/01 00:22:18;;;;;;;18.07;9.20;;;13.50;97.70;;;;;;5015830;28;20196;-73
2021/09/01 00:24:44;;;;;;;15.80;8.90;;;13.50;97.60;;;;;;5011324;28;20188;-71
2021/09/01 00:27:10;;;;;;;14.63;8.87;;;13.40;97.70;;;;;;5018872;28;20657;-72
2021/09/01 00:29:36;;;;;;;25.13;9.70;;;13.40;97.80;;;;;;5016477;28;20297;-73
2021/09/01 00:32:05;;;;;;;16.53;9.50;;;13.40;97.90;;;;;;5018237;28;21132;-72
2021/09/01 00:34:31;;;;;;;16.50;9.40;;;13.30;97.90;;;;;;5020752;28;20225;-74
2021/09/01 00:36:56;;;;;;;16.97;9.30;;;13.20;98.10;;;;;;5015734;28;20815;-72
2021/09/01 00:39:22;;;;;;;17.67;9.97;;;13.20;98.30;;;;;;5012368;28;20582;-72
2021/09/01 00:41:48;;;;;;;17.03;10.00;;;13.30;98.40;;;;;;5012055;28;20247;-74
2021/09/01 00:44:24;;;;;;;21.43;9.83;;;13.30;98.30;;;;;;5011537;28;20214;-75
2021/09/01 00:46:54;;;;;;;19.60;10.30;;;13.20;98.20;;;;;;5005305;28;20193;-74
2021/09/01 00:49:21;;;;;;;19.40;10.80;;;13.20;98.20;;;;;;5011081;28;20468;-72
2021/09/01 00:51:48;;;;;;;20.20;10.60;;;13.20;98.20;;;;;;5012541;28;20417;-72
2021/09/01 00:54:19;;;;;;;18.13;10.33;;;13.10;98.30;;;;;;5011717;28;20476;-73
2021/09/01 00:56:52;;;;;;;18.80;10.80;;;13.10;98.50;;;;;;5011074;28;20424;-72
2021/09/01 00:59:26;;;;;;;23.43;12.23;;;13.10;98.70;;;;;;5012654;28;20437;-73
2021/09/01 01:01:53;;;;;;;20.30;11.87;;;13.10;98.80;;;;;;5012106;28;20954;-72
2021/09/01 01:04:20;;;;;;;22.10;11.20;;;13.10;99.00;;;;;;5010723;28;20449;-72
2021/09/01 01:06:46;;;;;;;18.13;10.77;;;13.10;99.10;;;;;;5012145;28;20409;-72
2021/09/01 01:09:12;;;;;;;20.43;11.20;;;13.10;99.10;;;;;;5013721;28;20428;-72
2021/09/01 01:11:57;;;;;;;20.17;10.77;;;13.00;99.10;;;;;;5011199;28;20186;-73
2021/09/01 01:14:23;;;;;;;19.50;11.67;;;13.10;99.10;;;;;;5011807;28;20959;-74
2021/09/01 01:16:48;;;;;;;23.17;11.17;;;13.00;99.10;;;;;;5009364;28;20441;-72
2021/09/01 01:19:16;;;;;;;18.10;10.03;;;13.10;99.00;;;;;;5012008;28;20182;-72
2021/09/01 01:21:42;;;;;;;19.03;11.00;;;13.10;98.90;;;;;;5007883;28;20264;-74
2021/09/01 01:24:08;;;;;;;20.60;11.77;;;13.10;98.80;;;;;;5008333;28;20498;-73
2021/09/01 01:26:33;;;;;;;23.83;9.90;;;13.10;98.70;;;;;;5012742;28;20186;-73
2021/09/01 01:29:02;;;;;;;19.30;9.80;;;13.10;98.70;;;;;;5014260;28;20197;-73
2021/09/01 01:31:28;;;;;;;20.40;10.70;;;13.10;98.50;;;;;;5014243;28;20277;-73
2021/09/01 01:33:54;;;;;;;16.67;9.43;;;13.10;98.10;;;;;;5011573;28;20531;-74
2021/09/01 01:36:20;;;;;;;19.40;9.80;;;12.90;97.90;;;;;;5013739;28;20483;-72
2021/09/01 01:38:46;;;;;;;18.73;9.70;;;12.80;98.00;;;;;;5013488;28;20188;-72
2021/09/01 01:41:12;;;;;;;18.03;9.70;;;12.70;98.00;;;;;;5014038;28;20226;-73
2021/09/01 01:43:38;;;;;;;21.53;10.27;;;12.70;98.10;;;;;;5012483;28;20213;-72
2021/09/01 01:46:06;;;;;;;20.27;11.20;;;12.70;98.30;;;;;;5011595;28;20428;-74
2021/09/01 01:48:35;;;;;;;20.43;10.40;;;12.70;98.40;;;;;;5014502;28;20425;-73
2021/09/01 01:51:02;;;;;;;18.77;9.90;;;12.70;98.40;;;;;;5014569;28;20471;-73
2021/09/01 01:53:28;;;;;;;21.73;10.40;;;12.70;98.30;;;;;;5012892;28;20475;-73
2021/09/01 01:55:54;;;;;;;26.67;13.13;;;12.70;98.40;;;;;;5015067;28;20424;-72
2021/09/01 01:58:20;;;;;;;22.60;12.30;;;12.60;98.70;;;;;;5014961;28;20425;-73
2021/09/01 02:00:46;;;;;;;21.70;12.20;;;12.60;99.00;;;;;;5015101;28;20437;-73
2021/09/01 02:03:12;;;;;;;22.57;12.67;;;12.60;99.20;;;;;;5014897;28;20205;-74
2021/09/01 02:05:38;;;;;;;21.20;11.73;;;12.60;99.20;;;;;;5013770;28;20768;-74
2021/09/01 02:08:04;;;;;;;25.63;13.30;;;12.60;99.30;;;;;;5015305;28;20455;-72
2021/09/01 02:10:29;;;;;;;27.20;14.20;;;12.60;99.40;;;;;;5013035;28;20276;-72
2021/09/01 02:12:55;;;;;;;27.13;13.83;;;12.60;99.50;;;;;;5010031;28;20528;-74
2021/09/01 02:15:21;;;;;;;22.83;12.60;;;12.60;99.50;;;;;;5010670;28;20186;-73
2021/09/01 02:17:47;;;;;;;22.63;12.73;;;12.60;99.60;;;;;;5010819;28;20209;-71
2021/09/01 02:20:14;;;;;;;26.13;14.40;;;12.60;99.70;;;;;;5003881;28;20570;-75
2021/09/01 02:22:41;;;;;;;27.93;13.83;;;12.60;99.70;;;;;;5008011;28;20220;-74
2021/09/01 02:25:08;;;;;;;27.50;13.80;;;12.60;99.70;;;;;;5009929;28;20467;-74
2021/09/01 02:27:34;;;;;;;26.13;13.80;;;12.60;99.70;;;;;;5008134;28;21110;-74
2021/09/01 02:30:00;;;;;;;23.87;13.03;;;12.60;99.70;;;;;;5005320;28;20491;-74
2021/09/01 02:32:26;;;;;;;27.60;13.80;;;12.70;99.70;;;;;;5010381;28;20421;-73
2021/09/01 02:34:52;;;;;;;29.23;16.00;;;12.70;99.50;;;;;;5009724;28;20491;-73
2021/09/01 02:37:18;;;;;;;29.23;14.03;;;12.70;99.30;;;;;;5011533;28;21022;-73
2021/09/01 02:39:43;;;;;;;28.90;15.23;;;12.70;99.40;;;;;;5010735;28;20186;-73
2021/09/01 02:42:09;;;;;;;23.80;13.40;;;12.60;99.50;;;;;;5010355;28;20244;-73
2021/09/01 02:44:35;;;;;;;25.50;12.60;;;12.60;99.60;;;;;;5010637;28;20256;-74
2021/09/01 02:47:01;;;;;;;25.23;12.10;;;12.60;99.60;;;;;;5010948;28;20202;-72
2021/09/01 02:49:27;;;;;;;21.67;11.00;;;12.70;99.60;;;;;;5011110;28;20312;-71
2021/09/01 02:51:53;;;;;;;21.03;10.83;;;12.60;99.40;;;;;;5011027;28;20516;-72
2021/09/01 02:54:18;;;;;;;20.83;11.00;;;12.60;99.20;;;;;;5010569;28;20551;-72
2021/09/01 02:56:44;;;;;;;22.53;12.17;;;12.60;98.50;;;;;;5010974;28;20182;-71
2021/09/01 02:59:10;;;;;;;21.80;12.50;;;12.60;98.20;;;;;;5011230;28;20244;-73
2021/09/01 03:01:36;;;;;;;22.40;11.60;;;12.50;97.90;;;;;;5010927;28;20209;-72
2021/09/01 03:04:01;;;;;;;22.07;11.90;;;12.50;98.20;;;;;;5012083;28;20311;-73
2021/09/01 03:06:27;;;;;;;21.73;11.80;;;12.50;98.20;;;;;;5012187;28;20193;-72
2021/09/01 03:08:53;;;;;;;25.03;13.23;;;12.40;98.20;;;;;;5014092;28;20186;-73
2021/09/01 03:11:19;;;;;;;21.87;11.63;;;12.50;98.20;;;;;;5011516;28;20220;-74
2021/09/01 03:13:44;;;;;;;23.93;11.50;;;12.40;98.20;;;;;;5011983;28;20194;-73
2021/09/01 03:16:10;;;;;;;22.37;11.17;;;12.40;98.30;;;;;;5012145;28;20190;-71
2021/09/01 03:18:36;;;;;;;25.57;12.20;;;12.40;98.20;;;;;;5013506;28;20193;-72
2021/09/01 03:21:02;;;;;;;21.20;11.60;;;12.40;98.00;;;;;;5013768;28;20235;-73
2021/09/01 03:23:27;;;;;;;20.03;11.20;;;12.30;98.00;;;;;;5012301;28;20217;-72
2021/09/01 03:25:53;;;;;;;23.80;11.97;;;12.30;98.20;;;;;;5014293;28;20312;-72
2021/09/01 03:28:19;;;;;;;22.87;12.47;;;12.20;98.40;;;;;;5012736;28;20196;-72
2021/09/01 03:30:44;;;;;;;26.57;12.77;;;12.20;98.60;;;;;;5009974;28;20251;-73
2021/09/01 03:33:10;;;;;;;23.80;12.00;;;12.20;98.80;;;;;;5009092;28;20248;-75
2021/09/01 03:35:36;;;;;;;23.40;11.77;;;12.20;99.00;;;;;;5009312;28;20238;-73
2021/09/01 03:38:01;;;;;;;23.07;12.07;;;12.20;99.10;;;;;;5009584;28;20356;-74
2021/09/01 03:40:27;;;;;;;24.10;12.60;;;12.20;99.10;;;;;;5009581;28;20189;-72
2021/09/01 03:42:53;;;;;;;25.47;13.37;;;12.20;99.00;;;;;;5008704;28;20210;-72
2021/09/01 03:45:19;;;;;;;22.83;11.90;;;12.20;99.10;;;;;;5008983;28;20186;-72
2021/09/01 03:47:44;;;;;;;23.73;12.63;;;12.20;99.10;;;;;;5009867;28;20182;-73
2021/09/01 03:50:11;;;;;;;23.60;12.03;;;12.20;99.10;;;;;;5012209;28;20213;-73
2021/09/01 03:52:37;;;;;;;21.23;11.60;;;12.10;99.10;;;;;;5013042;28;20205;-73
2021/09/01 03:55:08;;;;;;;26.83;14.63;;;12.10;99.10;;;;;;5012998;28;20447;-73
2021/09/01 03:57:34;;;;;;;28.10;13.63;;;12.10;99.10;;;;;;5013439;28;20181;-72
2021/09/01 03:59:59;;;;;;;26.77;13.27;;;12.00;99.00;;;;;;5012855;28;20945;-73
2021/09/01 04:02:26;;;;;;;25.10;13.80;;;12.10;99.20;;;;;;5012899;28;20424;-73
2021/09/01 04:04:51;;;;;;;23.53;12.77;;;12.00;99.10;;;;;;5012343;28;20216;-72
2021/09/01 04:07:17;;;;;;;22.27;12.33;;;12.00;99.20;;;;;;5013006;28;20915;-73
2021/09/01 04:09:43;;;;;;;30.43;14.40;;;12.10;99.20;;;;;;5011876;28;20228;-73
2021/09/01 04:12:09;;;;;;;26.33;13.03;;;12.10;99.30;;;;;;5011172;28;20273;-72
2021/09/01 04:14:35;;;;;;;36.20;15.33;;;12.10;99.30;;;;;;5012171;28;20202;-73
2021/09/01 04:17:00;;;;;;;34.80;15.50;;;12.20;99.40;;;;;;5013178;28;20432;-74
2021/09/01 04:19:26;;;;;;;35.50;15.77;;;12.20;99.50;;;;;;5008519;28;20194;-73
2021/09/01 04:21:52;;;;;;;31.30;15.70;;;12.20;99.70;;;;;;5011237;28;20193;-75
2021/09/01 04:24:17;;;;;;;31.50;15.27;;;12.10;99.80;;;;;;5009730;28;20259;-74
2021/09/01 04:26:43;;;;;;;30.53;16.03;;;12.00;99.90;;;;;;5013364;28;20223;-74
2021/09/01 04:29:09;;;;;;;32.87;15.20;;;11.90;99.90;;;;;;5011148;28;20189;-74
2021/09/01 04:31:35;;;;;;;36.03;17.67;;;11.90;99.90;;;;;;5009237;28;20210;-74
2021/09/01 04:34:00;;;;;;;28.40;15.33;;;11.90;99.90;;;;;;5005438;28;20214;-75
2021/09/01 04:36:26;;;;;;;31.90;16.17;;;11.80;99.90;;;;;;5012958;28;20236;-73
2021/09/01 04:38:52;;;;;;;32.33;16.10;;;11.80;99.90;;;;;;5012660;28;20620;-74
2021/09/01 04:41:17;;;;;;;30.67;15.93;;;11.90;99.90;;;;;;5012667;28;20204;-74
2021/09/01 04:43:43;;;;;;;33.43;16.40;;;12.00;99.90;;;;;;5010804;28;20580;-73
2021/09/01 04:46:09;;;;;;;33.50;15.87;;;12.00;99.90;;;;;;5012062;28;20193;-77
2021/09/01 04:48:34;;;;;;;33.20;16.40;;;12.00;99.90;;;;;;5013401;28;20186;-77
2021/09/01 04:51:00;;;;;;;30.90;15.70;;;12.00;99.90;;;;;;5013201;28;20652;-77
2021/09/01 04:53:26;;;;;;;40.33;17.20;;;12.10;99.90;;;;;;5012818;28;20198;-76
2021/09/01 04:55:52;;;;;;;34.20;17.10;;;12.10;99.90;;;;;;5013406;28;20269;-77
2021/09/01 04:58:17;;;;;;;33.27;15.93;;;12.10;99.90;;;;;;5010933;28;20272;-76
2021/09/01 05:00:43;;;;;;;34.90;16.10;;;12.20;99.90;;;;;;5002714;28;20271;-76
2021/09/01 05:03:09;;;;;;;34.53;17.73;;;12.20;99.90;;;;;;5013199;28;20217;-75
2021/09/01 05:05:34;;;;;;;42.07;18.90;;;12.30;99.90;;;;;;5011955;28;20228;-77
2021/09/01 05:08:00;;;;;;;34.93;18.10;;;12.30;99.90;;;;;;5014068;28;20247;-81
2021/09/01 05:10:26;;;;;;;31.70;16.00;;;12.30;99.90;;;;;;5012653;28;20209;-77
2021/09/01 05:12:52;;;;;;;32.23;16.20;;;12.30;99.90;;;;;;5014091;28;20293;-77
2021/09/01 05:15:21;;;;;;;31.80;17.00;;;12.40;99.90;;;;;;5011562;28;20259;-74
2021/09/01 05:17:47;;;;;;;32.03;16.00;;;12.40;99.90;;;;;;5010537;28;20193;-73
2021/09/01 05:20:14;;;;;;;31.97;16.30;;;12.40;99.90;;;;;;5011749;28;20875;-74
2021/09/01 05:22:46;;;;;;;30.53;15.03;;;12.40;99.90;;;;;;5009424;28;20220;-72
2021/09/01 05:25:15;;;;;;;29.30;14.00;;;12.40;99.90;;;;;;5009160;28;20456;-75
2021/09/01 05:27:43;;;;;;;33.30;15.07;;;12.50;99.90;;;;;;5011465;28;20532;-73
2021/09/01 05:30:14;;;;;;;28.17;14.73;;;12.40;99.70;;;;;;5010319;28;20473;-75
2021/09/01 05:32:43;;;;;;;41.10;18.40;;;12.50;99.60;;;;;;5011124;28;20950;-73
2021/09/01 05:35:10;;;;;;;30.20;16.83;;;12.50;99.40;;;;;;5009955;28;20955;-74
2021/09/01 05:37:37;;;;;;;28.23;15.10;;;12.40;99.30;;;;;;5007811;28;20497;-73
2021/09/01 05:40:04;;;;;;;26.77;14.43;;;12.40;99.50;;;;;;5011478;28;20435;-73
2021/09/01 05:42:32;;;;;;;32.10;14.93;;;12.50;99.40;;;;;;5008374;28;20433;-74
2021/09/01 05:44:59;;;;;;;37.90;15.83;;;12.60;99.40;;;;;;5011047;28;20437;-75
2021/09/01 05:47:26;;;;;;;35.93;15.80;;;12.60;99.20;;;;;;5010948;28;20428;-72
2021/09/01 05:49:54;;;;;;;30.03;15.23;;;12.70;99.10;;;;;;5011252;28;20472;-73
2021/09/01 05:52:20;;;;;;;33.10;15.33;;;12.70;99.00;;;;;;5010423;28;20476;-72
2021/09/01 05:54:52;;;;;;;31.80;16.63;;;12.80;99.00;;;;;;5011073;28;20421;-73
2021/09/01 05:57:37;;;;;;;33.30;15.10;;;12.80;98.80;;;;;;5011121;28;20425;-73
2021/09/01 06:00:07;;;;;;;35.07;16.70;;;12.80;98.80;;;;;;5008985;28;20996;-75
2021/09/01 06:03:10;;;;;;;30.20;15.33;;;12.90;98.90;;;;;;5010442;28;20969;-75
2021/09/01 06:05:38;;;;;;;33.00;15.73;;;12.90;98.90;;;;;;5002048;28;20907;-74
2021/09/01 06:08:07;;;;;;;36.13;16.97;;;13.00;98.80;;;;;;5005965;28;20450;-74
2021/09/01 06:10:34;;;;;;;39.63;18.90;;;13.10;98.70;;;;;;5010889;28;20531;-73
2021/09/01 06:13:04;;;;;;;33.63;16.63;;;13.10;98.50;;;;;;5010320;28;20441;-74
2021/09/01 06:15:30;;;;;;;32.27;15.93;;;13.10;98.20;;;;;;5002505;28;20448;-76
2021/09/01 06:17:56;;;;;;;34.27;16.50;;;13.00;98.10;;;;;;5008616;28;20440;-73
2021/09/01 06:20:22;;;;;;;37.60;17.70;;;13.10;98.00;;;;;;5004506;28;20440;-72
2021/09/01 06:22:48;;;;;;;37.33;18.10;;;13.20;98.10;;;;;;5010105;28;20452;-75
2021/09/01 06:25:14;;;;;;;33.67;16.93;;;13.30;98.10;;;;;;5010553;28;20440;-75
2021/09/01 06:27:40;;;;;;;36.60;17.30;;;13.40;98.10;;;;;;5010967;28;20425;-72
2021/09/01 06:30:06;;;;;;;37.40;17.33;;;13.50;98.00;;;;;;5010860;28;20213;-72
2021/09/01 06:32:32;;;;;;;35.33;17.60;;;13.60;97.30;;;;;;5010191;28;20213;-73
2021/09/01 06:34:58;;;;;;;35.30;19.03;;;13.70;97.00;;;;;;5010957;28;20447;-73
2021/09/01 06:37:24;;;;;;;31.00;15.70;;;13.70;96.90;;;;;;5012031;28;20248;-74
2021/09/01 06:39:51;;;;;;;40.43;17.50;;;13.80;96.70;;;;;;5012995;28;20185;-75
2021/09/01 06:42:18;;;;;;;42.57;20.60;;;13.80;96.50;;;;;;5009150;28;20199;-72
2021/09/01 06:44:44;;;;;;;35.90;18.07;;;13.90;96.50;;;;;;5012249;28;20943;-72
2021/09/01 06:47:10;;;;;;;37.40;17.07;;;13.90;96.50;;;;;;5014556;28;20454;-75
2021/09/01 06:49:36;;;;;;;31.20;16.93;;;14.00;96.40;;;;;;5012937;28;20472;-74
2021/09/01 06:52:02;;;;;;;38.57;18.07;;;14.10;96.40;;;;;;5012379;28;20742;-74
2021/09/01 06:54:28;;;;;;;34.60;17.57;;;14.20;96.10;;;;;;5011874;28;20202;-72
2021/09/01 06:56:54;;;;;;;37.43;18.13;;;14.20;95.80;;;;;;5008200;28;20425;-73
2021/09/01 06:59:19;;;;;;;35.67;17.80;;;14.30;95.60;;;;;;5009875;28;20186;-72
2021/09/01 07:01:45;;;;;;;37.00;18.23;;;14.20;95.20;;;;;;5008209;28;20644;-73
2021/09/01 07:04:11;;;;;;;45.13;20.97;;;14.20;95.40;;;;;;5010032;28;20243;-73
2021/09/01 07:06:36;;;;;;;34.37;16.00;;;14.20;95.50;;;;;;5007693;28;20697;-74
2021/09/01 07:09:02;;;;;;;38.23;17.80;;;14.30;95.60;;;;;;5007948;28;20194;-73
2021/09/01 07:11:28;;;;;;;38.00;18.53;;;14.50;95.60;;;;;;5010844;28;20209;-72
2021/09/01 07:13:53;;;;;;;34.80;17.90;;;14.60;95.40;;;;;;5010460;28;20229;-76
2021/09/01 07:16:19;;;;;;;36.67;17.80;;;14.80;95.00;;;;;;5009961;28;20186;-72
2021/09/01 07:18:45;;;;;;;40.50;18.87;;;14.90;94.30;;;;;;5010777;28;20256;-73
2021/09/01 07:21:12;;;;;;;38.10;18.07;;;14.90;94.10;;;;;;5012633;28;20448;-74
2021/09/01 07:23:39;;;;;;;34.10;17.80;;;14.90;94.30;;;;;;5014257;28;20206;-72
2021/09/01 07:26:05;;;;;;;43.20;20.70;;;15.00;94.00;;;;;;5025993;28;20425;-73
2021/09/01 07:28:31;;;;;;;35.83;19.10;;;15.00;93.80;;;;;;5023815;28;20427;-72
2021/09/01 07:30:57;;;;;;;36.70;17.80;;;15.10;93.80;;;;;;5018459;28;20832;-72
2021/09/01 07:33:22;;;;;;;50.43;19.73;;;15.10;93.70;;;;;;5016903;28;20436;-72
2021/09/01 07:35:48;;;;;;;36.60;18.27;;;15.10;93.70;;;;;;5016299;28;20185;-73
2021/09/01 07:38:14;;;;;;;40.27;19.43;;;15.10;93.90;;;;;;5016232;28;20183;-73
2021/09/01 07:40:41;;;;;;;45.10;20.70;;;15.10;93.90;;;;;;5011588;28;20435;-74
2021/09/01 07:43:06;;;;;;;51.70;20.83;;;14.90;93.90;;;;;;5014041;28;20457;-74
2021/09/01 07:45:32;;;;;;;47.60;21.50;;;14.70;94.30;;;;;;5016164;28;20433;-74
2021/09/01 07:47:58;;;;;;;45.43;20.43;;;14.60;94.90;;;;;;5014902;28;20194;-72
2021/09/01 07:50:27;;;;;;;44.63;20.93;;;14.50;95.20;;;;;;5009357;28;20475;-73
2021/09/01 07:52:53;;;;;;;45.63;21.27;;;14.50;95.50;;;;;;5012831;28;20336;-74
2021/09/01 07:55:19;;;;;;;42.93;20.63;;;14.50;95.20;;;;;;5013158;28;20523;-74
2021/09/01 07:57:45;;;;;;;45.30;21.50;;;14.40;95.60;;;;;;5009682;28;20425;-73
2021/09/01 08:00:11;;;;;;;40.23;19.70;;;14.40;95.90;;;;;;5013738;28;20193;-74
2021/09/01 08:02:37;;;;;;;45.97;19.07;;;14.40;96.10;;;;;;5012891;28;20213;-75
2021/09/01 08:05:04;;;;;;;41.77;19.83;;;14.50;95.90;;;;;;5013337;28;20441;-73
2021/09/01 08:07:29;;;;;;;45.87;19.20;;;14.40;95.90;;;;;;5005538;28;20390;-74
2021/09/01 08:09:55;;;;;;;38.57;19.17;;;14.50;95.70;;;;;;5015025;28;20818;-74
2021/09/01 08:12:21;;;;;;;36.90;18.30;;;14.40;95.90;;;;;;5012833;28;20244;-75
2021/09/01 08:14:47;;;;;;;33.73;16.53;;;14.50;95.80;;;;;;5012605;28;20170;-74
2021/09/01 08:17:13;;;;;;;38.70;20.27;;;14.40;95.90;;;;;;5013580;28;20205;-73
2021/09/01 08:19:43;;;;;;;38.80;18.10;;;14.40;96.00;;;;;;5013375;28;20190;-74
2021/09/01 08:22:10;;;;;;;33.13;18.13;;;14.40;96.20;;;;;;5010778;28;20429;-74
2021/09/01 08:24:38;;;;;;;36.13;17.60;;;14.40;96.20;;;;;;5011159;28;20491;-73
2021/09/01 08:27:05;;;;;;;33.70;16.73;;;14.50;96.20;;;;;;5009772;28;20931;-73
2021/09/01 08:29:32;;;;;;;35.50;16.70;;;14.50;96.00;;;;;;5011434;28;20472;-73
2021/09/01 08:31:58;;;;;;;32.40;15.57;;;14.60;96.00;;;;;;5011389;28;20483;-75
2021/09/01 08:34:24;;;;;;;29.17;16.00;;;14.70;96.00;;;;;;5011784;28;20452;-73
2021/09/01 08:36:49;;;;;;;34.13;16.60;;;14.90;96.00;;;;;;5013053;28;20567;-74
2021/09/01 08:39:15;;;;;;;29.57;15.17;;;15.00;95.60;;;;;;5012460;28;20188;-74
2021/09/01 08:41:42;;;;;;;34.57;15.93;;;15.00;95.40;;;;;;5011219;28;20233;-74
2021/09/01 08:44:08;;;;;;;30.90;16.00;;;15.10;95.20;;;;;;5010504;28;20569;-74
2021/09/01 08:46:35;;;;;;;29.40;14.90;;;15.20;94.90;;;;;;5012806;28;20421;-74
2021/09/01 08:49:02;;;;;;;28.77;15.87;;;15.20;94.90;;;;;;5008683;28;20928;-74
2021/09/01 08:51:31;;;;;;;32.10;14.43;;;15.30;94.80;;;;;;5010776;28;21296;-74
2021/09/01 08:53:59;;;;;;;30.23;15.73;;;15.40;94.50;;;;;;5010379;28;20451;-74
2021/09/01 08:56:28;;;;;;;28.07;14.97;;;15.50;94.20;;;;;;5010938;28;20421;-74
2021/09/01 08:58:54;;;;;;;27.77;15.10;;;15.60;94.00;;;;;;5008547;28;20428;-74
2021/09/01 09:01:44;;;;;;;29.30;15.10;;;15.60;93.70;;;;;;5010863;28;20426;-73
2021/09/01 09:04:25;;;;;;;29.63;14.60;;;15.70;93.50;;;;;;5008968;28;20209;-74
2021/09/01 09:06:54;;;;;;;31.13;15.00;;;15.80;93.50;;;;;;5007775;28;20528;-74
2021/09/01 09:09:22;;;;;;;31.47;16.03;;;15.90;93.10;;;;;;5012302;28;20931;-73
2021/09/01 09:11:49;;;;;;;26.23;13.93;;;15.90;93.00;;;;;;5012177;28;20487;-74
2021/09/01 09:14:22;;;;;;;29.50;15.23;;;16.00;93.00;;;;;;5010364;28;21038;-73
2021/09/01 09:17:03;;;;;;;25.37;14.33;;;16.20;92.70;;;;;;5016691;28;20448;-73
2021/09/01 09:19:49;;;;;;;25.73;15.20;;;16.40;92.10;;;;;;5019840;28;20438;-73
2021/09/01 09:22:33;;;;;;;23.20;13.07;;;16.50;91.70;;;;;;5003972;28;20431;-73
2021/09/01 09:25:09;;;;;;;26.40;14.43;;;16.60;91.80;;;;;;5010506;28;20512;-72
2021/09/01 09:27:48;;;;;;;23.23;13.23;;;16.70;91.50;;;;;;5008124;28;20430;-73
2021/09/01 09:30:20;;;;;;;26.20;13.23;;;16.90;91.20;;;;;;5010531;28;20467;-74
2021/09/01 09:33:09;;;;;;;24.13;12.73;;;17.00;90.80;;;;;;5011676;28;20511;-72
2021/09/01 09:35:59;;;;;;;21.30;12.37;;;17.10;90.70;;;;;;5010906;28;20431;-73
2021/09/01 09:38:41;;;;;;;25.47;13.63;;;17.20;90.30;;;;;;5010342;28;20425;-74
2021/09/01 09:41:24;;;;;;;22.17;12.23;;;17.20;89.90;;;;;;5009404;28;20562;-72
2021/09/01 09:43:52;;;;;;;25.83;12.83;;;17.20;90.00;;;;;;5009589;28;20460;-72
2021/09/01 09:46:19;;;;;;;21.63;12.07;;;17.30;89.90;;;;;;5010445;28;20442;-72
2021/09/01 09:48:46;;;;;;;18.20;10.97;;;17.50;89.60;;;;;;5011563;28;20938;-74
2021/09/01 09:51:19;;;;;;;19.40;10.87;;;17.60;88.90;;;;;;5009634;28;20518;-72
2021/09/01 09:53:48;;;;;;;18.70;10.67;;;17.70;88.60;;;;;;5007494;28;20479;-72
2021/09/01 09:56:25;;;;;;;18.57;10.93;;;17.90;88.10;;;;;;5011294;28;20471;-73
2021/09/01 09:58:55;;;;;;;15.60;10.17;;;18.00;87.00;;;;;;5011495;28;20440;-74
2021/09/01 10:01:23;;;;;;;13.80;9.83;;;18.00;86.50;;;;;;5010758;28;20455;-73
2021/09/01 10:03:50;;;;;;;19.23;10.93;;;18.10;85.00;;;;;;5010251;28;20452;-73
2021/09/01 10:06:18;;;;;;;18.57;10.10;;;18.20;85.00;;;;;;5007802;28;20805;-76
2021/09/01 10:08:46;;;;;;;17.27;9.70;;;18.30;84.00;;;;;;5010564;28;20429;-73
2021/09/01 10:11:14;;;;;;;16.10;9.00;;;18.40;82.80;;;;;;5007321;28;20958;-73
2021/09/01 10:13:44;;;;;;;13.43;8.23;;;18.50;81.50;;;;;;5004303;28;20553;-75
2021/09/01 10:16:22;;;;;;;15.30;8.57;;;18.50;79.60;;;;;;5006416;28;20579;-73
2021/09/01 10:19:00;;;;;;;11.83;7.60;;;18.50;79.30;;;;;;5011124;28;20963;-74
2021/09/01 10:21:28;;;;;;;10.13;8.27;;;18.50;79.50;;;;;;5012183;28;20499;-76
2021/09/01 10:23:54;;;;;;;14.80;8.13;;;18.60;78.60;;;;;;5015043;28;20450;-73
2021/09/01 10:26:33;;;;;;;13.43;8.50;;;18.80;78.90;;;;;;5013900;28;20499;-75
2021/09/01 10:29:02;;;;;;;16.60;7.27;;;18.90;78.30;;;;;;5009907;28;20793;-73
2021/09/01 10:31:35;;;;;;;10.93;7.03;;;18.90;76.40;;;;;;5010801;28;20470;-73
2021/09/01 10:34:19;;;;;;;11.30;7.23;;;19.00;74.60;;;;;;5003624;28;20448;-74
2021/09/01 10:36:50;;;;;;;12.10;6.90;;;19.10;74.60;;;;;;5009825;28;20975;-72
2021/09/01 10:39:30;;;;;;;9.93;6.37;;;19.30;74.60;;;;;;5003578;28;20427;-72
2021/09/01 10:41:55;;;;;;;9.47;6.40;;;19.40;73.20;;;;;;5002631;28;20437;-73
2021/09/01 10:44:22;;;;;;;10.80;6.50;;;19.80;68.60;;;;;;5009510;28;20451;-73
2021/09/01 10:46:51;;;;;;;10.07;6.67;;;20.20;68.30;;;;;;5003572;28;20198;-73
2021/09/01 10:49:27;;;;;;;12.20;6.87;;;20.50;68.00;;;;;;5009778;28;20424;-74
2021/09/01 10:52:01;;;;;;;14.50;7.37;;;21.10;66.30;;;;;;5008522;28;20434;-74
2021/09/01 10:54:32;;;;;;;10.70;6.43;;;21.60;65.30;;;;;;5009772;28;20450;-72
2021/09/01 10:57:00;;;;;;;12.23;6.80;;;22.20;64.20;;;;;;5007909;28;20444;-74
2021/09/01 10:59:37;;;;;;;9.20;6.60;;;22.30;61.60;;;;;;5008035;28;20475;-73
2021/09/01 11:02:14;;;;;;;10.10;6.70;;;22.10;62.00;;;;;;5009728;28;20446;-75
2021/09/01 11:04:54;;;;;;;12.90;6.57;;;22.20;62.80;;;;;;5008715;28;20434;-75
2021/09/01 11:07:22;;;;;;;8.70;6.30;;;22.10;62.00;;;;;;5006239;28;20920;-74
2021/09/01 11:09:51;;;;;;;10.90;6.60;;;22.30;61.90;;;;;;5010290;28;20557;-73
2021/09/01 11:12:17;;;;;;;9.00;5.97;;;22.60;61.20;;;;;;5009489;28;20573;-72
2021/09/01 11:14:46;;;;;;;9.03;5.50;;;23.00;59.10;;;;;;5009409;28;20912;-74
2021/09/01 11:17:13;;;;;;;7.33;5.60;;;23.00;58.20;;;;;;5007202;28;20196;-72
2021/09/01 11:19:44;;;;;;;14.00;6.70;;;23.20;58.50;;;;;;5010185;28;20420;-74
2021/09/01 11:22:12;;;;;;;10.20;6.70;;;23.40;58.20;;;;;;5009773;28;20485;-73
2021/09/01 11:24:53;;;;;;;11.27;6.53;;;23.40;58.50;;;;;;5006072;28;20487;-73
2021/09/01 11:27:24;;;;;;;11.43;7.53;;;23.10;59.30;;;;;;5009317;28;20432;-73
2021/09/01 11:29:50;;;;;;;10.40;6.40;;;22.90;60.40;;;;;;5010028;28;20478;-75
2021/09/01 11:32:20;;;;;;;10.90;7.80;;;23.00;60.30;;;;;;5010520;28;20440;-73
2021/09/01 11:34:47;;;;;;;11.53;6.50;;;23.10;60.70;;;;;;5010193;28;20416;-75
2021/09/01 11:37:16;;;;;;;9.97;6.50;;;23.10;59.90;;;;;;5009606;28;20422;-72
2021/09/01 11:39:44;;;;;;;9.73;6.37;;;23.50;59.20;;;;;;5009509;28;20427;-74
2021/09/01 11:42:10;;;;;;;11.83;7.20;;;23.60;58.10;;;;;;5009233;28;20438;-73
2021/09/01 11:44:36;;;;;;;9.60;6.37;;;23.60;57.70;;;;;;5002284;28;20442;-74
2021/09/01 11:47:02;;;;;;;5.87;4.93;;;23.80;55.70;;;;;;5008829;28;21038;-72
2021/09/01 11:49:28;;;;;;;6.83;5.00;;;23.40;55.30;;;;;;5009498;28;20430;-72
2021/09/01 11:51:54;;;;;;;10.07;5.47;;;23.20;56.10;;;;;;5002839;28;20470;-71
2021/09/01 11:54:20;;;;;;;8.10;5.93;;;22.80;55.80;;;;;;5009318;28;20288;-72
2021/09/01 11:56:46;;;;;;;7.03;4.97;;;22.40;56.80;;;;;;5001290;28;20235;-72
2021/09/01 11:59:14;;;;;;;7.03;4.93;;;22.10;57.20;;;;;;5005882;28;20572;-73
2021/09/01 12:01:55;;;;;;;8.73;6.17;;;22.00;58.10;;;;;;5009574;28;20463;-73
2021/09/01 12:04:24;;;;;;;8.73;6.10;;;22.00;57.70;;;;;;5009009;28;20945;-72
2021/09/01 12:06:57;;;;;;;10.47;6.43;;;21.90;60.70;;;;;;5009431;28;20426;-71
2021/09/01 12:09:25;;;;;;;7.90;5.80;;;22.10;60.70;;;;;;5007326;28;20433;-72
2021/09/01 12:11:55;;;;;;;11.53;6.10;;;22.40;59.20;;;;;;5011651;28;20423;-73
2021/09/01 12:14:28;;;;;;;10.40;7.17;;;22.40;58.70;;;;;;5012450;28;20497;-73
2021/09/01 12:17:13;;;;;;;8.97;5.60;;;22.30;58.90;;;;;;5012508;28;20447;-71
2021/09/01 12:19:50;;;;;;;10.03;6.13;;;22.20;59.10;;;;;;5006897;28;20442;-73
2021/09/01 12:22:37;;;;;;;9.63;6.23;;;22.50;59.10;;;;;;5010981;28;20443;-71
2021/09/01 12:25:31;;;;;;;11.97;5.80;;;22.50;57.40;;;;;;4999499;28;20436;-72
2021/09/01 12:28:10;;;;;;;10.87;6.50;;;22.40;58.80;;;;;;5008468;28;20435;-72
2021/09/01 12:30:43;;;;;;;9.33;6.20;;;22.40;59.10;;;;;;5004130;28;20471;-73
2021/09/01 12:33:17;;;;;;;11.07;6.93;;;22.10;60.30;;;;;;5010925;28;20467;-74
2021/09/01 12:35:55;;;;;;;10.50;6.80;;;21.70;61.30;;;;;;5012511;28;20423;-73